createdAt,value
2022-08-20T00:01:08.107Z,100504.72
2022-08-20T00:03:40.236Z,100508.28
2022-08-20T00:06:10.690Z,100513.13
2022-08-20T00:08:39.751Z,100515.41
2022-08-20T00:11:11.633Z,100518.09
2022-08-20T00:13:45.356Z,100503.97
2022-08-20T00:16:15.443Z,100508.88
2022-08-20T00:18:43.507Z,100513.19
2022-08-20T00:21:18.058Z,100517.56
2022-08-20T00:23:48.885Z,100520.03
2022-08-20T00:26:18.240Z,100525.50
2022-08-20T00:28:51.229Z,100516.59
2022-08-20T00:31:22.626Z,100519.38
2022-08-20T00:34:55.589Z,100520.44
2022-08-20T00:41:06.325Z,100519.94
2022-08-20T00:43:38.114Z,100515.56
2022-08-20T00:46:14.131Z,100515.56
2022-08-20T00:48:43.520Z,100516.66
2022-08-20T00:51:15.115Z,100507.94
2022-08-20T00:53:43.348Z,100526.97
2022-08-20T00:56:12.444Z,100543.28
2022-08-20T00:58:42.121Z,100549.28
2022-08-20T01:01:11.213Z,100547.38
2022-08-20T01:03:39.949Z,100545.19
2022-08-20T01:06:09.463Z,100555.81
2022-08-20T01:08:39.336Z,100556.88
2022-08-20T01:11:16.866Z,100560.72
2022-08-20T01:13:48.426Z,100556.88
2022-08-20T01:16:24.286Z,100551.22
2022-08-20T01:18:52.896Z,100549.31
2022-08-20T01:21:24.980Z,100542.75
2022-08-20T01:23:57.569Z,100548.19
2022-08-20T01:27:29.549Z,100540.03
2022-08-20T01:30:00.986Z,100528.63
2022-08-20T01:32:34.887Z,100526.72
2022-08-20T01:35:02.882Z,100513.16
2022-08-20T01:37:31.387Z,100519.41
2022-08-20T01:40:00.460Z,100521.56
2022-08-20T01:42:31.299Z,100517.22
2022-08-20T01:45:00.513Z,100521.56
2022-08-20T01:47:38.314Z,100510.69
2022-08-20T01:50:13.581Z,100519.94
2022-08-20T01:52:52.477Z,100519.38
2022-08-20T01:55:20.818Z,100521.84
2022-08-20T01:57:50.211Z,100526.44
2022-08-20T02:00:22.732Z,100523.50
2022-08-20T02:02:52.062Z,100519.94
2022-08-20T02:05:21.349Z,100531.06
2022-08-20T02:07:49.975Z,100528.63
2022-08-20T02:10:19.931Z,100532.16
2022-08-20T02:12:48.748Z,100532.69
2022-08-20T02:16:18.184Z,100534.31
2022-08-20T02:18:47.543Z,100538.38
2022-08-20T02:21:15.383Z,100535.72
2022-08-20T02:23:43.336Z,100535.97
2022-08-20T02:27:16.525Z,100545.19
2022-08-20T02:29:44.200Z,100544.94
2022-08-20T02:32:25.099Z,100549.00
2022-08-20T02:35:03.334Z,100553.09
2022-08-20T02:37:32.615Z,100554.47
2022-08-20T02:40:01.186Z,100555.25
2022-08-20T02:42:29.636Z,100548.19
2022-08-20T02:44:58.636Z,100545.19
2022-08-20T02:47:27.668Z,100543.81
2022-08-20T02:49:56.540Z,100540.84
2022-08-20T02:52:25.809Z,100541.66
2022-08-20T02:55:58.879Z,100540.88
2022-08-20T02:58:28.401Z,100544.63
2022-08-20T03:00:56.901Z,100541.09
2022-08-20T03:03:26.216Z,100544.09
2022-08-20T03:05:56.389Z,100546.00
2022-08-20T03:08:26.684Z,100546.84
2022-08-20T03:10:55.335Z,100550.91
2022-08-20T03:13:24.408Z,100555.53
2022-08-20T03:15:58.619Z,100552.00
2022-08-20T03:18:28.935Z,100555.28
2022-08-20T03:20:56.709Z,100548.75
2022-08-20T03:23:27.510Z,100553.63
2022-08-20T03:26:59.603Z,100546.00
2022-08-20T03:29:28.211Z,100540.03
2022-08-20T03:31:56.076Z,100546.03
2022-08-20T03:34:24.523Z,100538.94
2022-08-20T03:36:52.544Z,100539.81
2022-08-20T03:39:22.091Z,100535.13
2022-08-20T03:41:50.027Z,100535.94
2022-08-20T03:44:18.889Z,100538.94
2022-08-20T03:46:47.606Z,100537.03
2022-08-20T03:49:16.803Z,100538.13
2022-08-20T03:51:57.440Z,100538.94
2022-08-20T03:54:32.005Z,100539.75
2022-08-20T03:57:00.684Z,100538.38
2022-08-20T03:59:28.387Z,100546.00
2022-08-20T04:01:57.309Z,100548.19
2022-08-20T04:04:25.477Z,100540.31
2022-08-20T04:06:54.299Z,100548.72
2022-08-20T04:09:22.895Z,100539.22
2022-08-20T04:12:00.264Z,100546.00
2022-08-20T04:14:27.923Z,100545.19
2022-08-20T04:17:58.760Z,100545.75
2022-08-20T04:20:28.668Z,100555.81
2022-08-20T04:22:58.966Z,100554.69
2022-08-20T04:25:29.759Z,100551.97
2022-08-20T04:28:03.717Z,100561.78
2022-08-20T04:30:32.852Z,100561.25
2022-08-20T04:33:00.631Z,100558.50
2022-08-20T04:35:30.482Z,100571.00
2022-08-20T04:38:02.236Z,100575.91
2022-08-20T04:40:47.483Z,100581.09
2022-08-20T04:43:19.995Z,100579.72
2022-08-20T04:45:48.266Z,100583.50
2022-08-20T04:48:16.953Z,100586.75
2022-08-20T04:51:48.963Z,100582.97
2022-08-20T04:54:16.891Z,100587.06
2022-08-20T04:56:44.766Z,100589.47
2022-08-20T04:59:13.940Z,100594.91
2022-08-20T05:01:42.204Z,100593.56
2022-08-20T05:04:10.230Z,100594.09
2022-08-20T05:06:41.161Z,100606.59
2022-08-20T05:09:08.876Z,100607.97
2022-08-20T05:11:37.162Z,100604.19
2022-08-20T05:14:08.909Z,100606.34
2022-08-20T05:16:41.193Z,100612.06
2022-08-20T05:19:12.112Z,100604.19
2022-08-20T05:21:41.055Z,100610.41
2022-08-20T05:24:10.226Z,100610.16
2022-08-20T05:26:38.842Z,100605.53
2022-08-20T05:29:07.675Z,100603.91
2022-08-20T05:31:36.223Z,100607.97
2022-08-20T05:34:10.780Z,100613.94
2022-08-20T05:36:40.800Z,100615.59
2022-08-20T05:39:08.928Z,100615.06
2022-08-20T05:41:37.773Z,100621.56
2022-08-20T05:44:05.675Z,100617.19
2022-08-20T05:46:33.616Z,100629.19
2022-08-20T05:49:02.054Z,100623.50
2022-08-20T05:51:36.705Z,100627.03
2022-08-20T05:54:06.113Z,100622.13
2022-08-20T05:56:35.022Z,100619.91
2022-08-20T05:59:05.081Z,100630.56
2022-08-20T06:01:34.370Z,100619.69
2022-08-20T06:04:20.018Z,100623.78
2022-08-20T06:06:51.823Z,100628.69
2022-08-20T06:09:31.172Z,100622.69
2022-08-20T06:12:02.801Z,100627.56
2022-08-20T06:14:31.187Z,100631.41
2022-08-20T06:17:10.634Z,100632.47
2022-08-20T06:19:44.516Z,100631.41
2022-08-20T06:22:21.732Z,100632.47
2022-08-20T06:24:55.495Z,100636.53
2022-08-20T06:27:24.287Z,100635.72
2022-08-20T06:29:52.326Z,100633.00
2022-08-20T06:32:32.514Z,100641.72
2022-08-20T06:35:03.696Z,100640.06
2022-08-20T06:37:37.194Z,100635.72
2022-08-20T06:40:08.994Z,100638.44
2022-08-20T06:42:41.655Z,100637.84
2022-08-20T06:45:12.572Z,100632.97
2022-08-20T06:47:42.157Z,100639.50
2022-08-20T06:50:13.395Z,100645.75
2022-08-20T06:52:52.151Z,100644.91
2022-08-20T06:55:22.055Z,100656.84
2022-08-20T06:57:58.006Z,100651.19
2022-08-20T07:00:26.383Z,100656.38
2022-08-20T07:02:54.151Z,100653.66
2022-08-20T07:05:22.125Z,100643.06
2022-08-20T07:07:51.442Z,100648.97
2022-08-20T07:10:21.170Z,100653.34
2022-08-20T07:12:51.449Z,100654.13
2022-08-20T07:15:21.526Z,100661.78
2022-08-20T07:17:58.730Z,100662.84
2022-08-20T07:20:29.942Z,100666.97
2022-08-20T07:22:59.294Z,100669.66
2022-08-20T07:25:27.099Z,100666.59
2022-08-20T07:28:01.613Z,100673.16
2022-08-20T07:30:55.997Z,100667.34
2022-08-20T07:33:25.088Z,100676.81
2022-08-20T07:35:52.946Z,100670.22
2022-08-20T07:38:25.093Z,100670.81
2022-08-20T07:40:57.115Z,100661.47
2022-08-20T07:43:25.422Z,100657.25
2022-08-20T07:45:55.794Z,100671.69
2022-08-20T07:48:31.458Z,100669.50
2022-08-20T07:51:03.820Z,100679.31
2022-08-20T07:53:37.398Z,100676.63
2022-08-20T07:57:09.432Z,100672.84
2022-08-20T07:59:39.898Z,100682.28
2022-08-20T08:02:08.566Z,100683.38
2022-08-20T08:04:38.497Z,100682.44
2022-08-20T08:08:10.792Z,100686.50
2022-08-20T08:10:41.653Z,100678.81
2022-08-20T08:13:12.671Z,100682.75
2022-08-20T08:15:45.838Z,100691.25
2022-08-20T08:18:17.728Z,100696.00
2022-08-20T08:20:46.671Z,100700.84
2022-08-20T08:23:31.850Z,100691.13
2022-08-20T08:26:01.434Z,100690.88
2022-08-20T08:28:29.615Z,100684.97
2022-08-20T08:30:58.081Z,100691.53
2022-08-20T08:33:31.030Z,100693.91
2022-08-20T08:36:00.425Z,100706.78
2022-08-20T08:38:28.578Z,100698.59
2022-08-20T08:41:00.282Z,100694.47
2022-08-20T08:43:32.039Z,100709.38
2022-08-20T08:46:02.615Z,100699.50
2022-08-20T08:48:36.816Z,100694.09
2022-08-20T08:51:07.691Z,100701.13
2022-08-20T08:53:39.125Z,100707.09
2022-08-20T08:56:07.761Z,100706.94
2022-08-20T08:58:37.253Z,100701.88
2022-08-20T09:01:09.873Z,100708.56
2022-08-20T09:03:44.430Z,100710.06
2022-08-20T09:06:16.151Z,100708.78
2022-08-20T09:08:48.497Z,100712.75
2022-08-20T09:11:18.142Z,100713.94
2022-08-20T09:13:48.066Z,100713.34
2022-08-20T09:16:16.582Z,100713.41
2022-08-20T09:18:45.285Z,100713.19
2022-08-20T09:21:14.591Z,100731.16
2022-08-20T09:23:43.461Z,100718.00
2022-08-20T09:26:11.218Z,100716.72
2022-08-20T09:28:39.169Z,100716.81
2022-08-20T09:31:08.405Z,100716.63
2022-08-20T09:33:38.399Z,100718.16
2022-08-20T09:36:31.415Z,100714.34
2022-08-20T09:38:55.091Z,100711.22
2022-08-20T09:41:22.820Z,100710.28
2022-08-20T09:43:52.317Z,100709.38
2022-08-20T09:46:27.373Z,100719.38
2022-08-20T09:48:56.387Z,100718.78
2022-08-20T09:55:07.247Z,100714.09
2022-08-20T09:57:36.025Z,100713.00
2022-08-20T10:00:08.732Z,100702.53
2022-08-20T10:02:37.882Z,100715.06
2022-08-20T10:05:06.445Z,100719.72
2022-08-20T10:07:38.936Z,100717.28
2022-08-20T10:10:08.170Z,100718.31
2022-08-20T10:12:36.121Z,100713.00
2022-08-20T10:15:03.885Z,100717.41
2022-08-20T10:17:31.832Z,100731.88
2022-08-20T10:20:03.372Z,100725.63
2022-08-20T10:22:33.060Z,100721.75
2022-08-20T10:25:01.355Z,100733.22
2022-08-20T10:27:29.219Z,100724.69
2022-08-20T10:29:58.401Z,100721.34
2022-08-20T10:32:27.051Z,100731.88
2022-08-20T10:34:54.915Z,100725.22
2022-08-20T10:37:25.701Z,100723.75
2022-08-20T10:39:54.075Z,100733.53
2022-08-20T10:42:22.878Z,100720.50
2022-08-20T10:44:50.864Z,100729.25
2022-08-20T10:47:24.805Z,100734.03
2022-08-20T10:49:55.806Z,100731.81
2022-08-20T10:52:29.351Z,100732.72
2022-08-20T10:54:58.420Z,100730.09
2022-08-20T10:57:29.587Z,100729.00
2022-08-20T10:59:59.522Z,100725.66
2022-08-20T11:02:29.088Z,100721.56
2022-08-20T11:04:57.722Z,100725.34
2022-08-20T11:07:54.987Z,100720.84
2022-08-20T11:11:21.460Z,100724.97
2022-08-20T11:13:49.325Z,100726.53
2022-08-20T11:19:59.497Z,100718.56
2022-08-20T11:22:29.207Z,100722.88
2022-08-20T11:24:58.452Z,100732.16
2022-08-20T11:27:28.455Z,100732.91
2022-08-20T11:29:56.766Z,100732.56
2022-08-20T11:32:25.904Z,100747.94
2022-08-20T11:34:54.477Z,100730.16
2022-08-20T11:37:25.267Z,100729.41
2022-08-20T11:39:56.842Z,100736.16
2022-08-20T11:42:24.862Z,100746.59
2022-08-20T11:44:53.552Z,100750.63
2022-08-20T11:47:24.265Z,100735.31
2022-08-20T11:50:56.720Z,100744.28
2022-08-20T11:53:26.366Z,100749.56
2022-08-20T11:55:55.482Z,100747.16
2022-08-20T11:58:23.292Z,100746.50
2022-08-20T12:00:51.998Z,100749.00
2022-08-20T12:03:20.631Z,100752.00
2022-08-20T12:05:48.924Z,100753.16
2022-08-20T12:08:27.133Z,100753.16
2022-08-20T12:11:01.551Z,100750.88
2022-08-20T12:13:47.397Z,100745.13
2022-08-20T12:16:16.886Z,100752.22
2022-08-20T12:18:45.760Z,100742.22
2022-08-20T12:21:13.527Z,100754.53
2022-08-20T12:23:41.535Z,100742.44
2022-08-20T12:26:13.770Z,100742.53
2022-08-20T12:28:41.824Z,100754.75
2022-08-20T12:31:09.679Z,100765.13
2022-08-20T12:33:37.811Z,100759.53
2022-08-20T12:36:06.262Z,100749.00
2022-08-20T12:38:34.114Z,100743.22
2022-08-20T12:41:02.745Z,100756.72
2022-08-20T12:43:32.499Z,100760.94
2022-08-20T12:46:00.577Z,100759.13
2022-08-20T12:48:28.692Z,100759.94
2022-08-20T12:50:56.742Z,100751.59
2022-08-20T12:53:25.440Z,100740.97
2022-08-20T12:55:53.186Z,100736.75
2022-08-20T12:58:21.268Z,100734.63
2022-08-20T13:00:52.717Z,100753.41
2022-08-20T13:03:21.758Z,100748.38
2022-08-20T13:05:51.006Z,100737.63
2022-08-20T13:08:19.832Z,100735.66
2022-08-20T13:10:47.736Z,100752.22
2022-08-20T13:13:17.693Z,100743.91
2022-08-20T13:15:49.666Z,100739.63
2022-08-20T13:18:20.998Z,100745.16
2022-08-20T13:20:49.137Z,100747.63
2022-08-20T13:23:17.240Z,100747.72
2022-08-20T13:25:45.914Z,100748.22
2022-08-20T13:28:14.246Z,100735.50
2022-08-20T13:30:42.039Z,100748.94
2022-08-20T13:33:10.853Z,100741.09
2022-08-20T13:35:40.542Z,100747.69
2022-08-20T13:38:08.670Z,100744.44
2022-08-20T13:40:36.649Z,100732.50
2022-08-20T13:43:07.582Z,100729.13
2022-08-20T13:45:40.949Z,100746.50
2022-08-20T13:48:10.103Z,100736.63
2022-08-20T13:50:49.061Z,100754.56
2022-08-20T13:53:18.277Z,100734.41
2022-08-20T13:55:46.932Z,100741.41
2022-08-20T13:58:14.740Z,100729.25
2022-08-20T14:00:42.755Z,100743.63
2022-08-20T14:03:11.723Z,100729.63
2022-08-20T14:05:40.464Z,100739.19
2022-08-20T14:08:13.112Z,100749.84
2022-08-20T14:10:42.903Z,100737.19
2022-08-20T14:13:15.176Z,100740.25
2022-08-20T14:15:45.033Z,100741.19
2022-08-20T14:18:14.387Z,100736.03
2022-08-20T14:20:45.559Z,100742.13
2022-08-20T14:23:15.478Z,100733.53
2022-08-20T14:25:46.706Z,100735.97
2022-08-20T14:28:18.249Z,100732.81
2022-08-20T14:30:52.624Z,100736.59
2022-08-20T14:33:21.432Z,100721.56
2022-08-20T14:35:49.877Z,100732.56
2022-08-20T14:38:19.683Z,100733.31
2022-08-20T14:40:50.226Z,100742.47
2022-08-20T14:43:20.443Z,100738.91
2022-08-20T14:45:48.380Z,100737.41
2022-08-20T14:48:17.888Z,100732.72
2022-08-20T14:50:45.745Z,100728.84
2022-08-20T14:53:14.416Z,100723.38
2022-08-20T14:55:43.483Z,100731.28
2022-08-20T14:58:12.466Z,100736.25
2022-08-20T15:00:41.226Z,100733.91
2022-08-20T15:07:51.952Z,100729.47
2022-08-20T15:10:24.950Z,100743.75
2022-08-20T15:12:56.649Z,100734.63
2022-08-20T15:15:26.981Z,100747.75
2022-08-20T15:17:58.024Z,100739.56
2022-08-20T15:20:28.216Z,100732.75
2022-08-20T15:30:23.268Z,100735.06
2022-08-20T15:32:54.966Z,100740.63
2022-08-20T15:35:26.120Z,100745.72
2022-08-20T15:37:56.910Z,100733.19
2022-08-20T15:40:28.723Z,100743.59
2022-08-20T15:42:58.621Z,100741.66
2022-08-20T15:45:30.869Z,100752.06
2022-08-20T15:48:03.049Z,100740.97
2022-08-20T15:50:53.184Z,100750.72
2022-08-20T15:53:25.069Z,100736.16
2022-08-20T15:55:58.839Z,100742.97
2022-08-20T15:58:33.328Z,100749.66
2022-08-20T16:01:24.733Z,100740.81
2022-08-20T16:04:07.248Z,100740.00
2022-08-20T16:06:36.625Z,100745.81
2022-08-20T16:09:19.720Z,100751.56
2022-08-20T16:11:52.243Z,100751.00
2022-08-20T16:14:24.299Z,100751.88
2022-08-20T16:17:04.430Z,100750.97
2022-08-20T16:19:37.658Z,100744.03
2022-08-20T16:22:06.424Z,100747.25
2022-08-20T16:24:35.193Z,100725.84
2022-08-20T16:27:13.665Z,100743.44
2022-08-20T16:29:47.741Z,100738.56
2022-08-20T16:32:21.602Z,100732.34
2022-08-20T16:34:53.147Z,100730.66
2022-08-20T16:37:26.738Z,100749.06
2022-08-20T16:40:01.561Z,100748.59
2022-08-20T16:42:33.284Z,100748.06
2022-08-20T16:45:02.185Z,100737.63
2022-08-20T16:47:35.829Z,100743.69
2022-08-20T16:50:07.783Z,100743.69
2022-08-20T16:52:35.742Z,100742.50
2022-08-20T16:55:03.989Z,100751.88
2022-08-20T16:57:31.910Z,100739.31
2022-08-20T17:00:08.445Z,100733.38
2022-08-20T17:02:50.880Z,100741.34
2022-08-20T17:05:19.085Z,100731.81
2022-08-20T17:07:51.560Z,100730.03
2022-08-20T17:10:24.931Z,100742.50
2022-08-20T17:12:55.230Z,100744.13
2022-08-20T17:15:26.737Z,100734.78
2022-08-20T17:18:18.180Z,100736.28
2022-08-20T17:20:47.816Z,100741.63
2022-08-20T17:23:18.509Z,100747.78
2022-08-20T17:25:55.289Z,100760.78
2022-08-20T17:28:24.419Z,100751.31
2022-08-20T17:30:53.601Z,100744.09
2022-08-20T17:33:39.960Z,100737.91
2022-08-20T17:36:11.499Z,100741.97
2022-08-20T17:38:43.064Z,100739.38
2022-08-20T17:41:17.358Z,100761.09
2022-08-20T17:43:46.294Z,100755.66
2022-08-20T17:46:17.555Z,100751.16
2022-08-20T17:48:50.297Z,100746.63
2022-08-20T17:51:21.561Z,100747.13
2022-08-20T17:53:53.008Z,100757.38
2022-08-20T17:56:23.635Z,100754.59
2022-08-20T17:58:56.583Z,100754.91
2022-08-20T18:01:27.287Z,100746.38
2022-08-20T18:04:00.784Z,100757.47
2022-08-20T18:06:35.743Z,100760.72
2022-08-20T18:09:08.568Z,100757.28
2022-08-20T18:11:41.776Z,100756.91
2022-08-20T18:14:27.477Z,100763.00
2022-08-20T18:17:08.203Z,100755.97
2022-08-20T18:20:15.236Z,100761.41
2022-08-20T18:22:50.801Z,100769.56
2022-08-20T18:25:30.977Z,100770.91
2022-08-20T18:28:05.140Z,100769.81
2022-08-20T18:30:34.315Z,100777.16
2022-08-20T18:33:05.441Z,100773.38
2022-08-20T18:35:37.973Z,100782.06
2022-08-20T18:38:14.130Z,100769.50
2022-08-20T18:40:41.909Z,100771.56
2022-08-20T18:43:13.982Z,100782.06
2022-08-20T18:45:43.029Z,100777.72
2022-08-20T18:49:12.213Z,100780.16
2022-08-20T18:51:49.401Z,100785.88
2022-08-20T18:54:25.030Z,100782.88
2022-08-20T19:04:20.615Z,100789.13
2022-08-20T19:06:57.606Z,100785.56
2022-08-20T19:09:47.869Z,100781.53
2022-08-20T19:12:29.637Z,100785.56
2022-08-20T19:15:03.530Z,100789.13
2022-08-20T19:17:50.739Z,100789.63
2022-08-20T19:20:21.395Z,100790.38
2022-08-20T19:22:55.698Z,100783.06
2022-08-20T19:25:27.629Z,100788.44
2022-08-20T19:27:57.287Z,100784.03
2022-08-20T19:30:33.108Z,100788.59
2022-08-20T19:33:01.877Z,100779.75
2022-08-20T19:35:30.639Z,100785.16
2022-08-20T19:38:02.571Z,100781.09
2022-08-20T19:40:38.149Z,100784.25
2022-08-20T19:43:12.149Z,100776.47
2022-08-20T19:45:42.779Z,100790.06
2022-08-20T19:48:41.492Z,100790.53
2022-08-20T19:51:14.018Z,100794.94
2022-08-20T19:53:48.660Z,100796.44
2022-08-20T19:56:19.054Z,100792.72
2022-08-20T19:58:47.049Z,100793.47
2022-08-20T20:01:19.213Z,100784.19
2022-08-20T20:03:58.558Z,100780.97
2022-08-20T20:06:27.366Z,100788.13
2022-08-20T20:09:00.734Z,100788.41
2022-08-20T20:11:34.482Z,100768.44
2022-08-20T20:14:04.760Z,100785.41
2022-08-20T20:16:33.216Z,100778.59
2022-08-20T20:19:24.894Z,100792.34
2022-08-20T20:21:51.720Z,100783.19
2022-08-20T20:24:26.431Z,100784.56
2022-08-20T20:26:55.593Z,100786.72
2022-08-20T20:29:26.020Z,100793.81
2022-08-20T20:31:55.627Z,100785.13
2022-08-20T20:34:27.261Z,100789.91
2022-08-20T20:37:16.293Z,100784.47
2022-08-20T20:40:19.364Z,100795.25
2022-08-20T20:42:58.824Z,100790.25
2022-08-20T20:45:33.318Z,100787.13
2022-08-20T20:48:06.567Z,100785.75
2022-08-20T20:50:36.354Z,100784.31
2022-08-20T20:53:04.171Z,100788.09
2022-08-20T20:55:39.047Z,100786.06
2022-08-20T20:58:06.891Z,100780.97
2022-08-20T21:00:35.397Z,100784.81
2022-08-20T21:03:04.010Z,100772.59
2022-08-20T21:05:33.311Z,100788.53
2022-08-20T21:08:03.948Z,100782.44
2022-08-20T21:10:37.000Z,100778.25
2022-08-20T21:13:06.680Z,100779.31
2022-08-20T21:15:35.518Z,100788.75
2022-08-20T21:18:06.446Z,100775.16
2022-08-20T21:20:35.704Z,100789.03
2022-08-20T21:23:05.137Z,100793.44
2022-08-20T21:25:35.548Z,100787.00
2022-08-20T21:28:03.790Z,100787.56
2022-08-20T21:30:33.812Z,100791.44
2022-08-20T21:33:01.718Z,100794.97
2022-08-20T21:35:30.528Z,100794.06
2022-08-20T21:37:58.813Z,100791.38
2022-08-20T21:40:28.377Z,100784.69
2022-08-20T21:42:59.958Z,100783.63
2022-08-20T21:45:28.687Z,100781.56
2022-08-20T21:47:57.498Z,100786.31
2022-08-20T21:50:26.404Z,100773.06
2022-08-20T21:52:59.106Z,100780.88
2022-08-20T21:56:32.373Z,100784.13
2022-08-20T21:59:05.119Z,100784.38
2022-08-20T22:01:35.405Z,100784.00
2022-08-20T22:04:03.443Z,100786.41
2022-08-20T22:06:33.710Z,100780.06
2022-08-20T22:09:01.535Z,100783.31
2022-08-20T22:11:31.342Z,100777.78
2022-08-20T22:13:59.771Z,100788.13
2022-08-20T22:16:29.927Z,100789.09
2022-08-20T22:18:57.895Z,100784.69
2022-08-20T22:21:28.326Z,100790.31
2022-08-20T22:24:01.349Z,100785.13
2022-08-20T22:26:30.214Z,100790.50
2022-08-20T22:28:59.125Z,100787.56
2022-08-20T22:31:31.680Z,100799.47
2022-08-20T22:34:01.979Z,100802.94
2022-08-20T22:36:29.976Z,100790.28
2022-08-20T22:38:58.526Z,100795.84
2022-08-20T22:41:26.501Z,100807.09
2022-08-20T22:43:56.307Z,100793.75
2022-08-20T22:46:27.912Z,100806.44
2022-08-20T22:48:58.660Z,100807.00
2022-08-20T22:51:32.406Z,100797.03
2022-08-20T22:54:04.046Z,100810.03
2022-08-20T22:56:33.146Z,100804.63
2022-08-20T22:59:02.626Z,100809.06
2022-08-20T23:01:32.306Z,100798.22
2022-08-20T23:04:10.021Z,100799.22
2022-08-20T23:06:38.781Z,100789.22
2022-08-20T23:09:08.100Z,100797.94
2022-08-20T23:11:41.618Z,100788.91
2022-08-20T23:14:10.404Z,100789.34
2022-08-20T23:16:40.823Z,100783.50
2022-08-20T23:19:11.170Z,100789.59
2022-08-20T23:21:38.825Z,100784.66
2022-08-20T23:24:14.312Z,100777.81
2022-08-20T23:26:52.385Z,100785.75
2022-08-20T23:29:25.133Z,100786.97
2022-08-20T23:31:56.479Z,100775.16
2022-08-20T23:34:29.372Z,100785.63
2022-08-20T23:36:58.430Z,100776.25
2022-08-20T23:39:27.201Z,100777.44
2022-08-20T23:41:56.715Z,100774.47
2022-08-20T23:44:26.569Z,100778.69
2022-08-20T23:47:59.298Z,100780.56
2022-08-20T23:50:30.514Z,100778.31
2022-08-20T23:52:59.744Z,100776.25
2022-08-20T23:55:27.703Z,100774.75
2022-08-20T23:57:55.492Z,100775.22
